sensor_id;sensor_type;location;lat;lon;timestamp;temperature;humidity
63047;DHT22;62025;39.238;9.126;2022-09-21T00:01:16;24.50;61.80
63047;DHT22;62025;39.238;9.126;2022-09-21T00:03:45;24.50;61.90
63047;DHT22;62025;39.238;9.126;2022-09-21T00:06:17;24.40;62.20
63047;DHT22;62025;39.238;9.126;2022-09-21T00:08:45;24.40;62.10
63047;DHT22;62025;39.238;9.126;2022-09-21T00:11:17;24.40;62.30
63047;DHT22;62025;39.238;9.126;2022-09-21T00:13:45;24.40;62.30
63047;DHT22;62025;39.238;9.126;2022-09-21T00:16:14;24.40;62.40
63047;DHT22;62025;39.238;9.126;2022-09-21T00:18:41;24.40;62.40
63047;DHT22;62025;39.238;9.126;2022-09-21T00:21:10;24.40;62.50
63047;DHT22;62025;39.238;9.126;2022-09-21T00:23:37;24.40;62.50
63047;DHT22;62025;39.238;9.126;2022-09-21T00:26:07;24.40;62.30
63047;DHT22;62025;39.238;9.126;2022-09-21T00:28:35;24.40;62.20
63047;DHT22;62025;39.238;9.126;2022-09-21T00:31:28;24.50;62.20
63047;DHT22;62025;39.238;9.126;2022-09-21T00:33:56;24.40;62.60
63047;DHT22;62025;39.238;9.126;2022-09-21T00:36:25;24.40;62.90
63047;DHT22;62025;39.238;9.126;2022-09-21T00:38:58;24.40;63.00
63047;DHT22;62025;39.238;9.126;2022-09-21T00:41:28;24.40;62.90
63047;DHT22;62025;39.238;9.126;2022-09-21T00:44:33;24.40;63.00
63047;DHT22;62025;39.238;9.126;2022-09-21T00:47:06;24.40;63.20
63047;DHT22;62025;39.238;9.126;2022-09-21T00:49:35;24.30;63.40
63047;DHT22;62025;39.238;9.126;2022-09-21T00:52:04;24.40;63.30
63047;DHT22;62025;39.238;9.126;2022-09-21T00:54:40;24.40;63.10
63047;DHT22;62025;39.238;9.126;2022-09-21T00:57:09;24.30;63.50
63047;DHT22;62025;39.238;9.126;2022-09-21T00:59:37;24.30;63.80
63047;DHT22;62025;39.238;9.126;2022-09-21T01:02:04;24.30;63.50
63047;DHT22;62025;39.238;9.126;2022-09-21T01:04:30;24.40;63.50
63047;DHT22;62025;39.238;9.126;2022-09-21T01:06:59;24.30;63.60
63047;DHT22;62025;39.238;9.126;2022-09-21T01:09:28;24.20;64.00
63047;DHT22;62025;39.238;9.126;2022-09-21T01:12:02;24.20;64.10
63047;DHT22;62025;39.238;9.126;2022-09-21T01:17:47;24.20;64.00
63047;DHT22;62025;39.238;9.126;2022-09-21T01:31:10;24.20;63.70
63047;DHT22;62025;39.238;9.126;2022-09-21T01:33:45;24.10;63.70
63047;DHT22;62025;39.238;9.126;2022-09-21T01:36:17;24.10;63.70
63047;DHT22;62025;39.238;9.126;2022-09-21T01:39:02;24.00;63.70
63047;DHT22;62025;39.238;9.126;2022-09-21T01:41:33;24.10;63.70
63047;DHT22;62025;39.238;9.126;2022-09-21T01:44:12;24.10;63.70
63047;DHT22;62025;39.238;9.126;2022-09-21T01:46:42;24.10;63.70
63047;DHT22;62025;39.238;9.126;2022-09-21T01:49:20;24.00;63.60
63047;DHT22;62025;39.238;9.126;2022-09-21T01:51:55;24.00;63.60
63047;DHT22;62025;39.238;9.126;2022-09-21T01:54:29;24.00;63.60
63047;DHT22;62025;39.238;9.126;2022-09-21T01:59:59;23.90;63.60
63047;DHT22;62025;39.238;9.126;2022-09-21T02:05:01;23.90;63.50
63047;DHT22;62025;39.238;9.126;2022-09-21T02:07:29;23.90;63.80
63047;DHT22;62025;39.238;9.126;2022-09-21T02:09:56;23.80;64.00
63047;DHT22;62025;39.238;9.126;2022-09-21T02:12:23;23.90;63.90
63047;DHT22;62025;39.238;9.126;2022-09-21T02:14:51;23.90;63.60
63047;DHT22;62025;39.238;9.126;2022-09-21T02:20:27;23.90;63.60
63047;DHT22;62025;39.238;9.126;2022-09-21T02:23:20;23.90;63.80
63047;DHT22;62025;39.238;9.126;2022-09-21T02:26:11;23.80;64.00
63047;DHT22;62025;39.238;9.126;2022-09-21T02:28:48;23.80;64.00
63047;DHT22;62025;39.238;9.126;2022-09-21T02:31:29;23.80;64.00
63047;DHT22;62025;39.238;9.126;2022-09-21T02:36:53;23.80;64.00
63047;DHT22;62025;39.238;9.126;2022-09-21T02:39:45;23.70;64.10
63047;DHT22;62025;39.238;9.126;2022-09-21T02:42:21;23.80;63.80
63047;DHT22;62025;39.238;9.126;2022-09-21T02:45:07;23.70;63.90
63047;DHT22;62025;39.238;9.126;2022-09-21T02:47:50;23.70;63.80
63047;DHT22;62025;39.238;9.126;2022-09-21T02:50:23;23.70;63.80
63047;DHT22;62025;39.238;9.126;2022-09-21T02:52:53;23.70;63.90
63047;DHT22;62025;39.238;9.126;2022-09-21T02:55:20;23.50;64.40
63047;DHT22;62025;39.238;9.126;2022-09-21T02:57:47;23.50;64.30
63047;DHT22;62025;39.238;9.126;2022-09-21T03:00:15;23.50;64.40
63047;DHT22;62025;39.238;9.126;2022-09-21T03:02:44;23.40;64.40
63047;DHT22;62025;39.238;9.126;2022-09-21T03:05:12;23.50;64.40
63047;DHT22;62025;39.238;9.126;2022-09-21T03:07:39;23.50;64.50
63047;DHT22;62025;39.238;9.126;2022-09-21T03:10:06;23.40;64.40
63047;DHT22;62025;39.238;9.126;2022-09-21T03:12:34;23.50;64.00
63047;DHT22;62025;39.238;9.126;2022-09-21T03:15:00;23.50;63.80
63047;DHT22;62025;39.238;9.126;2022-09-21T03:17:26;23.40;63.80
63047;DHT22;62025;39.238;9.126;2022-09-21T03:19:52;23.40;63.50
63047;DHT22;62025;39.238;9.126;2022-09-21T03:22:23;23.40;63.50
63047;DHT22;62025;39.238;9.126;2022-09-21T03:24:49;23.40;63.50
63047;DHT22;62025;39.238;9.126;2022-09-21T03:27:18;23.40;63.40
63047;DHT22;62025;39.238;9.126;2022-09-21T03:29:46;23.40;63.50
63047;DHT22;62025;39.238;9.126;2022-09-21T03:32:13;23.30;63.50
63047;DHT22;62025;39.238;9.126;2022-09-21T03:34:39;23.30;63.70
63047;DHT22;62025;39.238;9.126;2022-09-21T03:37:07;23.40;63.50
63047;DHT22;62025;39.238;9.126;2022-09-21T03:39:34;23.40;63.40
63047;DHT22;62025;39.238;9.126;2022-09-21T03:42:01;23.40;63.50
63047;DHT22;62025;39.238;9.126;2022-09-21T03:44:28;23.30;63.50
63047;DHT22;62025;39.238;9.126;2022-09-21T03:46:54;23.40;63.30
63047;DHT22;62025;39.238;9.126;2022-09-21T03:49:22;23.30;63.30
63047;DHT22;62025;39.238;9.126;2022-09-21T03:51:48;23.30;63.20
63047;DHT22;62025;39.238;9.126;2022-09-21T03:54:14;23.30;63.10
63047;DHT22;62025;39.238;9.126;2022-09-21T03:56:40;23.20;63.20
63047;DHT22;62025;39.238;9.126;2022-09-21T03:59:07;23.20;63.10
63047;DHT22;62025;39.238;9.126;2022-09-21T04:01:33;23.10;63.20
63047;DHT22;62025;39.238;9.126;2022-09-21T04:03:59;23.10;63.10
63047;DHT22;62025;39.238;9.126;2022-09-21T04:06:25;23.10;63.00
63047;DHT22;62025;39.238;9.126;2022-09-21T04:08:51;23.10;63.00
63047;DHT22;62025;39.238;9.126;2022-09-21T04:11:19;23.10;62.80
63047;DHT22;62025;39.238;9.126;2022-09-21T04:13:50;23.10;62.90
63047;DHT22;62025;39.238;9.126;2022-09-21T04:16:25;23.10;62.70
63047;DHT22;62025;39.238;9.126;2022-09-21T04:18:51;23.10;62.70
63047;DHT22;62025;39.238;9.126;2022-09-21T04:21:18;23.10;62.70
63047;DHT22;62025;39.238;9.126;2022-09-21T04:23:44;23.10;62.80
63047;DHT22;62025;39.238;9.126;2022-09-21T04:26:31;23.10;62.80
63047;DHT22;62025;39.238;9.126;2022-09-21T04:28:58;23.00;62.90
63047;DHT22;62025;39.238;9.126;2022-09-21T04:31:26;23.00;62.70
63047;DHT22;62025;39.238;9.126;2022-09-21T04:33:54;23.10;62.60
63047;DHT22;62025;39.238;9.126;2022-09-21T04:36:23;23.00;62.60
63047;DHT22;62025;39.238;9.126;2022-09-21T04:38:50;23.00;62.60
63047;DHT22;62025;39.238;9.126;2022-09-21T04:41:17;23.00;62.70
63047;DHT22;62025;39.238;9.126;2022-09-21T04:43:47;22.90;63.00
63047;DHT22;62025;39.238;9.126;2022-09-21T04:46:16;22.90;63.10
63047;DHT22;62025;39.238;9.126;2022-09-21T04:48:45;22.90;63.10
63047;DHT22;62025;39.238;9.126;2022-09-21T04:51:14;22.90;63.20
63047;DHT22;62025;39.238;9.126;2022-09-21T04:53:41;22.90;63.10
63047;DHT22;62025;39.238;9.126;2022-09-21T04:56:12;23.00;62.90
63047;DHT22;62025;39.238;9.126;2022-09-21T04:58:39;22.90;63.10
63047;DHT22;62025;39.238;9.126;2022-09-21T05:01:05;22.90;63.20
63047;DHT22;62025;39.238;9.126;2022-09-21T05:03:32;22.90;63.20
63047;DHT22;62025;39.238;9.126;2022-09-21T05:05:59;22.90;63.20
63047;DHT22;62025;39.238;9.126;2022-09-21T05:08:26;22.90;63.00
63047;DHT22;62025;39.238;9.126;2022-09-21T05:11:31;22.90;62.90
63047;DHT22;62025;39.238;9.126;2022-09-21T05:13:58;23.00;62.80
63047;DHT22;62025;39.238;9.126;2022-09-21T05:16:24;22.90;63.00
63047;DHT22;62025;39.238;9.126;2022-09-21T05:18:52;22.90;62.80
63047;DHT22;62025;39.238;9.126;2022-09-21T05:21:20;22.90;62.90
63047;DHT22;62025;39.238;9.126;2022-09-21T05:23:46;22.90;62.70
63047;DHT22;62025;39.238;9.126;2022-09-21T05:26:12;22.90;62.70
63047;DHT22;62025;39.238;9.126;2022-09-21T05:28:38;22.90;62.70
63047;DHT22;62025;39.238;9.126;2022-09-21T05:36:59;22.90;62.30
63047;DHT22;62025;39.238;9.126;2022-09-21T05:39:26;22.90;62.10
63047;DHT22;62025;39.238;9.126;2022-09-21T05:41:53;22.90;62.00
63047;DHT22;62025;39.238;9.126;2022-09-21T05:44:20;22.90;62.00
63047;DHT22;62025;39.238;9.126;2022-09-21T05:46:58;22.90;61.60
63047;DHT22;62025;39.238;9.126;2022-09-21T05:55:28;23.00;61.40
63047;DHT22;62025;39.238;9.126;2022-09-21T05:58:55;23.10;61.60
63047;DHT22;62025;39.238;9.126;2022-09-21T06:04:03;23.40;61.00
63047;DHT22;62025;39.238;9.126;2022-09-21T06:06:29;23.40;60.70
63047;DHT22;62025;39.238;9.126;2022-09-21T06:08:55;23.40;60.80
63047;DHT22;62025;39.238;9.126;2022-09-21T06:11:22;23.30;60.90
63047;DHT22;62025;39.238;9.126;2022-09-21T06:13:48;23.30;61.10
63047;DHT22;62025;39.238;9.126;2022-09-21T06:16:14;23.30;61.10
63047;DHT22;62025;39.238;9.126;2022-09-21T06:18:40;23.40;61.00
63047;DHT22;62025;39.238;9.126;2022-09-21T06:21:07;23.40;61.00
63047;DHT22;62025;39.238;9.126;2022-09-21T06:23:34;23.30;61.30
63047;DHT22;62025;39.238;9.126;2022-09-21T06:26:00;23.30;61.70
63047;DHT22;62025;39.238;9.126;2022-09-21T06:28:27;23.40;61.40
63047;DHT22;62025;39.238;9.126;2022-09-21T06:30:55;23.50;61.50
63047;DHT22;62025;39.238;9.126;2022-09-21T06:33:22;23.50;61.50
63047;DHT22;62025;39.238;9.126;2022-09-21T06:35:55;23.60;61.40
63047;DHT22;62025;39.238;9.126;2022-09-21T06:38:24;23.50;61.70
63047;DHT22;62025;39.238;9.126;2022-09-21T06:40:51;23.60;61.80
63047;DHT22;62025;39.238;9.126;2022-09-21T06:43:18;23.60;61.70
63047;DHT22;62025;39.238;9.126;2022-09-21T06:45:55;23.70;61.70
63047;DHT22;62025;39.238;9.126;2022-09-21T06:48:26;23.70;61.80
63047;DHT22;62025;39.238;9.126;2022-09-21T06:50:57;23.80;61.50
63047;DHT22;62025;39.238;9.126;2022-09-21T06:53:27;23.90;61.50
63047;DHT22;62025;39.238;9.126;2022-09-21T06:56:00;24.10;61.10
63047;DHT22;62025;39.238;9.126;2022-09-21T06:58:30;24.20;60.90
63047;DHT22;62025;39.238;9.126;2022-09-21T07:01:09;24.30;60.90
63047;DHT22;62025;39.238;9.126;2022-09-21T07:03:38;24.40;60.40
63047;DHT22;62025;39.238;9.126;2022-09-21T07:06:06;24.80;59.40
63047;DHT22;62025;39.238;9.126;2022-09-21T07:08:33;24.90;58.90
63047;DHT22;62025;39.238;9.126;2022-09-21T07:11:00;25.10;58.80
63047;DHT22;62025;39.238;9.126;2022-09-21T07:13:30;25.20;58.40
63047;DHT22;62025;39.238;9.126;2022-09-21T07:15:56;25.10;58.50
63047;DHT22;62025;39.238;9.126;2022-09-21T07:18:22;25.20;58.50
63047;DHT22;62025;39.238;9.126;2022-09-21T07:20:48;25.40;58.30
63047;DHT22;62025;39.238;9.126;2022-09-21T07:23:17;25.40;58.10
63047;DHT22;62025;39.238;9.126;2022-09-21T07:25:47;25.60;57.70
63047;DHT22;62025;39.238;9.126;2022-09-21T07:28:15;25.60;57.10
63047;DHT22;62025;39.238;9.126;2022-09-21T07:30:41;25.70;57.00
63047;DHT22;62025;39.238;9.126;2022-09-21T07:33:08;25.90;56.70
63047;DHT22;62025;39.238;9.126;2022-09-21T07:35:35;25.90;56.30
63047;DHT22;62025;39.238;9.126;2022-09-21T07:38:03;25.80;56.50
63047;DHT22;62025;39.238;9.126;2022-09-21T07:40:31;25.80;56.60
63047;DHT22;62025;39.238;9.126;2022-09-21T07:42:58;25.90;56.80
63047;DHT22;62025;39.238;9.126;2022-09-21T07:45:27;26.40;55.50
63047;DHT22;62025;39.238;9.126;2022-09-21T07:47:53;26.60;54.80
63047;DHT22;62025;39.238;9.126;2022-09-21T07:50:21;26.50;55.00
63047;DHT22;62025;39.238;9.126;2022-09-21T07:52:47;26.50;54.70
63047;DHT22;62025;39.238;9.126;2022-09-21T07:55:14;26.80;54.00
63047;DHT22;62025;39.238;9.126;2022-09-21T07:57:40;26.80;53.80
63047;DHT22;62025;39.238;9.126;2022-09-21T08:00:25;26.90;53.70
63047;DHT22;62025;39.238;9.126;2022-09-21T08:02:53;27.00;53.20
63047;DHT22;62025;39.238;9.126;2022-09-21T08:05:19;27.40;52.60
63047;DHT22;62025;39.238;9.126;2022-09-21T08:07:45;27.60;51.90
63047;DHT22;62025;39.238;9.126;2022-09-21T08:10:12;27.30;52.50
63047;DHT22;62025;39.238;9.126;2022-09-21T08:12:39;27.30;52.80
63047;DHT22;62025;39.238;9.126;2022-09-21T08:15:05;27.30;52.80
63047;DHT22;62025;39.238;9.126;2022-09-21T08:17:32;27.50;52.40
63047;DHT22;62025;39.238;9.126;2022-09-21T08:19:58;27.40;52.60
63047;DHT22;62025;39.238;9.126;2022-09-21T08:22:24;27.60;52.00
63047;DHT22;62025;39.238;9.126;2022-09-21T08:24:50;27.80;51.50
63047;DHT22;62025;39.238;9.126;2022-09-21T08:27:17;27.60;51.70
63047;DHT22;62025;39.238;9.126;2022-09-21T08:29:44;27.40;51.80
63047;DHT22;62025;39.238;9.126;2022-09-21T08:32:11;27.30;52.20
63047;DHT22;62025;39.238;9.126;2022-09-21T08:34:37;27.40;51.80
63047;DHT22;62025;39.238;9.126;2022-09-21T08:37:03;27.50;51.30
63047;DHT22;62025;39.238;9.126;2022-09-21T08:39:29;27.60;50.80
63047;DHT22;62025;39.238;9.126;2022-09-21T08:42:26;27.90;50.00
63047;DHT22;62025;39.238;9.126;2022-09-21T08:45:02;28.30;49.60
63047;DHT22;62025;39.238;9.126;2022-09-21T08:47:45;28.20;50.50
63047;DHT22;62025;39.238;9.126;2022-09-21T08:53:11;27.50;52.00
63047;DHT22;62025;39.238;9.126;2022-09-21T08:55:39;28.30;50.00
63047;DHT22;62025;39.238;9.126;2022-09-21T09:01:03;28.00;50.00
63047;DHT22;62025;39.238;9.126;2022-09-21T09:06:56;28.10;49.80
63047;DHT22;62025;39.238;9.126;2022-09-21T09:18:56;28.10;48.90
63047;DHT22;62025;39.238;9.126;2022-09-21T09:21:28;28.20;48.40
63047;DHT22;62025;39.238;9.126;2022-09-21T09:24:01;29.20;45.60
63047;DHT22;62025;39.238;9.126;2022-09-21T09:29:39;29.40;44.70
63047;DHT22;62025;39.238;9.126;2022-09-21T09:32:14;29.70;44.40
63047;DHT22;62025;39.238;9.126;2022-09-21T09:34:54;29.40;45.20
63047;DHT22;62025;39.238;9.126;2022-09-21T09:37:31;30.10;43.40
63047;DHT22;62025;39.238;9.126;2022-09-21T09:40:00;30.10;43.10
63047;DHT22;62025;39.238;9.126;2022-09-21T09:42:38;30.10;43.40
63047;DHT22;62025;39.238;9.126;2022-09-21T09:45:34;30.10;42.90
63047;DHT22;62025;39.238;9.126;2022-09-21T09:48:28;30.10;42.60
63047;DHT22;62025;39.238;9.126;2022-09-21T09:51:00;29.90;42.70
63047;DHT22;62025;39.238;9.126;2022-09-21T09:53:27;30.00;43.10
63047;DHT22;62025;39.238;9.126;2022-09-21T09:55:55;29.60;44.00
63047;DHT22;62025;39.238;9.126;2022-09-21T09:58:23;29.30;44.50
63047;DHT22;62025;39.238;9.126;2022-09-21T10:00:57;29.30;44.70
63047;DHT22;62025;39.238;9.126;2022-09-21T10:03:25;29.30;44.50
63047;DHT22;62025;39.238;9.126;2022-09-21T10:05:52;29.00;44.70
63047;DHT22;62025;39.238;9.126;2022-09-21T10:11:14;29.50;43.40
63047;DHT22;62025;39.238;9.126;2022-09-21T10:13:42;29.70;42.70
63047;DHT22;62025;39.238;9.126;2022-09-21T10:16:13;29.40;43.70
63047;DHT22;62025;39.238;9.126;2022-09-21T10:18:55;29.20;43.70
63047;DHT22;62025;39.238;9.126;2022-09-21T10:24:06;28.10;45.60
63047;DHT22;62025;39.238;9.126;2022-09-21T10:26:48;28.90;44.50
63047;DHT22;62025;39.238;9.126;2022-09-21T10:32:17;29.20;43.50
63047;DHT22;62025;39.238;9.126;2022-09-21T10:37:37;29.20;43.30
63047;DHT22;62025;39.238;9.126;2022-09-21T10:40:25;29.20;43.10
63047;DHT22;62025;39.238;9.126;2022-09-21T10:42:57;28.80;43.50
63047;DHT22;62025;39.238;9.126;2022-09-21T10:47:58;28.10;44.80
63047;DHT22;62025;39.238;9.126;2022-09-21T10:50:40;28.40;44.70
63047;DHT22;62025;39.238;9.126;2022-09-21T10:53:52;28.50;44.50
63047;DHT22;62025;39.238;9.126;2022-09-21T10:59:19;28.90;44.10
63047;DHT22;62025;39.238;9.126;2022-09-21T11:01:50;28.80;44.40
63047;DHT22;62025;39.238;9.126;2022-09-21T11:07:38;28.10;46.30
63047;DHT22;62025;39.238;9.126;2022-09-21T11:12:52;27.90;46.30
63047;DHT22;62025;39.238;9.126;2022-09-21T11:26:42;28.00;45.70
63047;DHT22;62025;39.238;9.126;2022-09-21T11:29:17;28.10;45.00
63047;DHT22;62025;39.238;9.126;2022-09-21T11:40:32;27.80;46.10
63047;DHT22;62025;39.238;9.126;2022-09-21T11:52:14;27.10;51.10
63047;DHT22;62025;39.238;9.126;2022-09-21T12:00:17;26.80;53.00
63047;DHT22;62025;39.238;9.126;2022-09-21T12:08:23;27.20;52.40
63047;DHT22;62025;39.238;9.126;2022-09-21T12:11:45;27.00;52.70
63047;DHT22;62025;39.238;9.126;2022-09-21T12:17:45;27.00;55.30
63047;DHT22;62025;39.238;9.126;2022-09-21T12:21:04;26.80;55.60
63047;DHT22;62025;39.238;9.126;2022-09-21T12:24:24;26.90;55.90
63047;DHT22;62025;39.238;9.126;2022-09-21T12:26:52;26.90;55.40
63047;DHT22;62025;39.238;9.126;2022-09-21T12:29:29;26.90;56.30
63047;DHT22;62025;39.238;9.126;2022-09-21T12:35:18;27.00;56.70
63047;DHT22;62025;39.238;9.126;2022-09-21T12:40:52;26.50;58.40
63047;DHT22;62025;39.238;9.126;2022-09-21T12:48:42;26.00;59.60
63047;DHT22;62025;39.238;9.126;2022-09-21T12:51:21;26.00;60.00
63047;DHT22;62025;39.238;9.126;2022-09-21T12:53:53;26.30;59.70
63047;DHT22;62025;39.238;9.126;2022-09-21T12:56:44;26.40;59.90
63047;DHT22;62025;39.238;9.126;2022-09-21T12:59:39;26.10;60.60
63047;DHT22;62025;39.238;9.126;2022-09-21T13:05:06;26.20;59.40
63047;DHT22;62025;39.238;9.126;2022-09-21T13:10:19;26.10;60.10
63047;DHT22;62025;39.238;9.126;2022-09-21T13:13:03;26.20;60.50
63047;DHT22;62025;39.238;9.126;2022-09-21T13:15:41;25.90;59.00
63047;DHT22;62025;39.238;9.126;2022-09-21T13:18:23;25.90;60.30
63047;DHT22;62025;39.238;9.126;2022-09-21T13:20:50;26.20;59.60
63047;DHT22;62025;39.238;9.126;2022-09-21T13:23:25;25.90;61.40
63047;DHT22;62025;39.238;9.126;2022-09-21T13:26:06;25.80;62.80
63047;DHT22;62025;39.238;9.126;2022-09-21T13:34:36;26.20;60.80
63047;DHT22;62025;39.238;9.126;2022-09-21T13:42:44;26.00;61.70
63047;DHT22;62025;39.238;9.126;2022-09-21T13:47:44;25.90;62.20
63047;DHT22;62025;39.238;9.126;2022-09-21T13:50:25;26.10;60.90
63047;DHT22;62025;39.238;9.126;2022-09-21T13:53:02;25.90;60.70
63047;DHT22;62025;39.238;9.126;2022-09-21T13:55:52;25.80;61.60
63047;DHT22;62025;39.238;9.126;2022-09-21T13:58:31;25.80;62.20
63047;DHT22;62025;39.238;9.126;2022-09-21T14:01:11;25.90;62.00
63047;DHT22;62025;39.238;9.126;2022-09-21T14:03:48;25.90;62.40
63047;DHT22;62025;39.238;9.126;2022-09-21T14:06:26;25.70;62.00
63047;DHT22;62025;39.238;9.126;2022-09-21T14:09:03;25.80;61.10
63047;DHT22;62025;39.238;9.126;2022-09-21T14:14:14;26.10;60.90
63047;DHT22;62025;39.238;9.126;2022-09-21T14:16:54;26.10;60.90
63047;DHT22;62025;39.238;9.126;2022-09-21T14:24:47;25.80;60.40
63047;DHT22;62025;39.238;9.126;2022-09-21T14:32:52;25.80;61.00
63047;DHT22;62025;39.238;9.126;2022-09-21T14:35:41;25.90;61.30
63047;DHT22;62025;39.238;9.126;2022-09-21T14:38:21;25.90;60.10
63047;DHT22;62025;39.238;9.126;2022-09-21T14:41:00;25.80;60.10
63047;DHT22;62025;39.238;9.126;2022-09-21T14:43:30;25.70;59.20
63047;DHT22;62025;39.238;9.126;2022-09-21T14:55:00;25.70;59.90
63047;DHT22;62025;39.238;9.126;2022-09-21T14:58:18;25.60;60.90
63047;DHT22;62025;39.238;9.126;2022-09-21T15:01:33;25.70;61.70
63047;DHT22;62025;39.238;9.126;2022-09-21T15:14:21;25.60;59.20
63047;DHT22;62025;39.238;9.126;2022-09-21T15:17:26;25.70;60.70
63047;DHT22;62025;39.238;9.126;2022-09-21T15:19:58;25.80;61.00
63047;DHT22;62025;39.238;9.126;2022-09-21T15:22:26;25.80;61.60
63047;DHT22;62025;39.238;9.126;2022-09-21T15:24:57;25.80;61.70
63047;DHT22;62025;39.238;9.126;2022-09-21T15:27:29;25.80;61.40
63047;DHT22;62025;39.238;9.126;2022-09-21T15:30:00;25.70;61.10
63047;DHT22;62025;39.238;9.126;2022-09-21T15:32:41;25.70;61.90
63047;DHT22;62025;39.238;9.126;2022-09-21T15:35:21;25.80;61.10
63047;DHT22;62025;39.238;9.126;2022-09-21T15:37:57;25.80;60.30
63047;DHT22;62025;39.238;9.126;2022-09-21T15:40:32;25.70;62.40
63047;DHT22;62025;39.238;9.126;2022-09-21T15:45:57;25.80;62.90
63047;DHT22;62025;39.238;9.126;2022-09-21T15:48:27;25.80;62.60
63047;DHT22;62025;39.238;9.126;2022-09-21T15:51:15;25.80;62.60
63047;DHT22;62025;39.238;9.126;2022-09-21T15:54:09;25.70;61.70
63047;DHT22;62025;39.238;9.126;2022-09-21T15:56:42;25.50;63.10
63047;DHT22;62025;39.238;9.126;2022-09-21T15:59:14;25.40;63.30
63047;DHT22;62025;39.238;9.126;2022-09-21T16:01:44;25.40;63.20
63047;DHT22;62025;39.238;9.126;2022-09-21T16:04:18;25.40;63.40
63047;DHT22;62025;39.238;9.126;2022-09-21T16:07:03;25.30;64.30
63047;DHT22;62025;39.238;9.126;2022-09-21T16:09:39;25.40;64.90
63047;DHT22;62025;39.238;9.126;2022-09-21T16:12:44;25.20;66.00
63047;DHT22;62025;39.238;9.126;2022-09-21T16:15:27;25.30;65.20
63047;DHT22;62025;39.238;9.126;2022-09-21T16:18:00;25.40;65.90
63047;DHT22;62025;39.238;9.126;2022-09-21T16:20:42;25.20;66.70
63047;DHT22;62025;39.238;9.126;2022-09-21T16:23:19;25.30;66.30
63047;DHT22;62025;39.238;9.126;2022-09-21T16:25:52;25.20;66.50
63047;DHT22;62025;39.238;9.126;2022-09-21T16:28:41;25.10;67.00
63047;DHT22;62025;39.238;9.126;2022-09-21T16:31:32;25.10;67.00
63047;DHT22;62025;39.238;9.126;2022-09-21T16:34:01;25.20;66.80
63047;DHT22;62025;39.238;9.126;2022-09-21T16:36:36;25.20;66.80
63047;DHT22;62025;39.238;9.126;2022-09-21T16:39:08;25.20;66.90
63047;DHT22;62025;39.238;9.126;2022-09-21T16:41:57;25.20;67.20
63047;DHT22;62025;39.238;9.126;2022-09-21T16:44:27;25.10;67.20
63047;DHT22;62025;39.238;9.126;2022-09-21T16:47:00;25.10;67.20
63047;DHT22;62025;39.238;9.126;2022-09-21T16:49:30;25.10;67.30
63047;DHT22;62025;39.238;9.126;2022-09-21T16:51:58;25.20;67.30
63047;DHT22;62025;39.238;9.126;2022-09-21T16:54:24;25.20;67.40
63047;DHT22;62025;39.238;9.126;2022-09-21T16:56:54;25.20;66.90
63047;DHT22;62025;39.238;9.126;2022-09-21T16:59:22;25.30;66.60
63047;DHT22;62025;39.238;9.126;2022-09-21T17:01:50;25.20;66.60
63047;DHT22;62025;39.238;9.126;2022-09-21T17:04:19;25.20;66.40
63047;DHT22;62025;39.238;9.126;2022-09-21T17:06:49;25.30;66.30
63047;DHT22;62025;39.238;9.126;2022-09-21T17:09:24;25.30;66.60
63047;DHT22;62025;39.238;9.126;2022-09-21T17:12:04;25.20;66.70
63047;DHT22;62025;39.238;9.126;2022-09-21T17:14:34;25.30;66.70
63047;DHT22;62025;39.238;9.126;2022-09-21T17:17:10;25.30;66.80
63047;DHT22;62025;39.238;9.126;2022-09-21T17:19:38;25.20;67.30
63047;DHT22;62025;39.238;9.126;2022-09-21T17:22:09;25.20;67.20
63047;DHT22;62025;39.238;9.126;2022-09-21T17:24:47;25.10;67.40
63047;DHT22;62025;39.238;9.126;2022-09-21T17:27:16;25.10;67.60
63047;DHT22;62025;39.238;9.126;2022-09-21T17:29:44;25.20;67.20
63047;DHT22;62025;39.238;9.126;2022-09-21T17:32:14;25.20;67.30
63047;DHT22;62025;39.238;9.126;2022-09-21T17:34:41;25.30;67.10
63047;DHT22;62025;39.238;9.126;2022-09-21T17:37:07;25.30;66.90
63047;DHT22;62025;39.238;9.126;2022-09-21T17:39:35;25.00;67.80
63047;DHT22;62025;39.238;9.126;2022-09-21T17:42:03;25.10;67.70
63047;DHT22;62025;39.238;9.126;2022-09-21T17:44:57;25.00;67.50
63047;DHT22;62025;39.238;9.126;2022-09-21T17:47:44;25.00;67.50
63047;DHT22;62025;39.238;9.126;2022-09-21T17:52:38;25.40;65.80
63047;DHT22;62025;39.238;9.126;2022-09-21T17:55:24;25.20;66.70
63047;DHT22;62025;39.238;9.126;2022-09-21T18:01:00;25.40;66.10
63047;DHT22;62025;39.238;9.126;2022-09-21T18:03:31;25.30;66.40
63047;DHT22;62025;39.238;9.126;2022-09-21T18:06:00;25.30;66.00
63047;DHT22;62025;39.238;9.126;2022-09-21T18:08:29;25.30;65.60
63047;DHT22;62025;39.238;9.126;2022-09-21T18:11:13;25.40;65.30
63047;DHT22;62025;39.238;9.126;2022-09-21T18:14:09;25.40;65.00
63047;DHT22;62025;39.238;9.126;2022-09-21T18:20:01;25.40;64.60
63047;DHT22;62025;39.238;9.126;2022-09-21T18:22:59;25.50;64.30
63047;DHT22;62025;39.238;9.126;2022-09-21T18:25:36;25.40;64.30
63047;DHT22;62025;39.238;9.126;2022-09-21T18:31:42;25.40;64.40
63047;DHT22;62025;39.238;9.126;2022-09-21T18:43:54;25.50;63.80
63047;DHT22;62025;39.238;9.126;2022-09-21T18:50:03;25.40;64.30
63047;DHT22;62025;39.238;9.126;2022-09-21T18:55:27;25.40;64.40
63047;DHT22;62025;39.238;9.126;2022-09-21T18:57:58;25.30;64.60
63047;DHT22;62025;39.238;9.126;2022-09-21T19:00:29;25.40;64.50
63047;DHT22;62025;39.238;9.126;2022-09-21T19:03:09;25.40;64.60
63047;DHT22;62025;39.238;9.126;2022-09-21T19:05:39;25.40;64.30
63047;DHT22;62025;39.238;9.126;2022-09-21T19:08:28;25.40;64.30
63047;DHT22;62025;39.238;9.126;2022-09-21T19:19:58;25.40;64.20
63047;DHT22;62025;39.238;9.126;2022-09-21T19:23:48;25.20;63.70
63047;DHT22;62025;39.238;9.126;2022-09-21T19:26:14;25.30;63.50
63047;DHT22;62025;39.238;9.126;2022-09-21T19:31:39;25.20;63.80
63047;DHT22;62025;39.238;9.126;2022-09-21T19:34:14;25.20;63.60
63047;DHT22;62025;39.238;9.126;2022-09-21T19:36:42;25.20;63.60
63047;DHT22;62025;39.238;9.126;2022-09-21T19:39:10;25.20;63.60
63047;DHT22;62025;39.238;9.126;2022-09-21T19:42:48;25.20;63.40
63047;DHT22;62025;39.238;9.126;2022-09-21T19:45:19;25.20;63.50
63047;DHT22;62025;39.238;9.126;2022-09-21T19:47:53;25.00;63.90
63047;DHT22;62025;39.238;9.126;2022-09-21T19:50:32;25.10;63.40
63047;DHT22;62025;39.238;9.126;2022-09-21T19:53:02;25.20;63.20
63047;DHT22;62025;39.238;9.126;2022-09-21T19:55:47;25.40;62.80
63047;DHT22;62025;39.238;9.126;2022-09-21T19:58:32;25.40;62.50
63047;DHT22;62025;39.238;9.126;2022-09-21T20:01:19;25.40;62.40
63047;DHT22;62025;39.238;9.126;2022-09-21T20:03:46;25.40;61.90
63047;DHT22;62025;39.238;9.126;2022-09-21T20:06:26;25.40;61.50